Detall de PIREP

Printer-friendly versionPDF version

[2008/11/16 14:22:00]
Flight IATA:CT0001
Pilot Number:041
Company ICAO:CAT
Aircraft Type:F50/A
PAX:38
Departing Airport: LEPA
Destination Airport: LEGE
Alternate Airport:LEBL
Online: VATSIM
Route:ESPOR2B W2 NEPAL W2 VILGA W2 VNV SLL1K
Flight Level:FL140
No Slew and time accel
No pause
Crash detect
Detect pilot in Cockpit between each 30 and 45 minutes
14:22 Zero fuel Weight: 38803 Lbs, Fuel Weight: 5385 Lbs
14:22 VATSIM:LEPA 161400Z 33008KT 280V010 9999 FEW025 18/08 Q1024 NOSIG
14:22 VATSIM:LEGE 161330Z VRB01KT CAVOK 16/02 Q1024
14:22 VOICE CATALONIAN
14:24 Parking Brakes off
14:30 Take-off
14:30 Take off Weight: 44112 Lbs
14:30 Wind: 052º @ 005 Knots Heading: 056º
14:30 POS N39º 33´ 01´´ E002º 45´ 03´´
14:30 Flaps:1 at 160 Knots
14:30 Gear Up: 162 Knots
14:31 Flaps:0 at 187 Knots
14:45 Wind:053º@018 Knots Heading: 334º Ground Speed: 241 Knots Altitude 11368 ft

14:48 TOC
14:48 Fuel Weight: 4797 Lb
14:57 TOD
14:57 Fuel Weight: 4552 Lb
15:00 Wind:062º@021 Knots Heading: 347º Ground Speed: 252 Knots Altitude 11748 ft
15:15 Wind:015º@007 Knots Heading: 038º Ground Speed: 239 Knots Altitude 5538 ft
15:17 Flaps:1 at 215 Knots
15:17 Flaps:2 at 195 Knots
15:17 Flaps:3 at 172 Knots
15:18 Gear Down: 165 Knots
15:18 Flaps:4 at 138 Knots
15:18 Flaps:5 at 130 Knots
15:18 Flaps:6 at 121 Knots
15:19 TouchDown:Rate -298 ft/min Speed: 94 Knots
15:20 VATSIM:LEGE 161500Z VRB01KT CAVOK 16/03 Q1024
15:20 Land
15:20 Wind:072º@001 Knots
15:20 Heading: 016º
15:20 Flight Duration: 00:50
15:20 Landing Weight: 42953 Lbs
15:20 POS N41º 54´ 09´´ E002º 45´ 40´´
15:24 Parking brakes on
15:24 Block to Block Duration: 01:00
15:24 Final Fuel: 4115 Lbls
15:24 Spent Fuel: 1269 Lbls
15:24 Flight Length: 194 NM
15:24 TOD Land Length: 86 NM

Exportar CSV

Powered by Drupal - Modified by Danger4k